sensor_id;sensor_type;location;lat;lon;timestamp;P1;durP1;ratioP1;P2;durP2;ratioP2
55483;SDS011;41345;51.704;5.146;2023-04-24T00:00:39;72.32;;;67.07;;
55483;SDS011;41345;51.704;5.146;2023-04-24T00:05:40;70.30;;;65.00;;
55483;SDS011;41345;51.704;5.146;2023-04-24T00:10:41;71.32;;;66.32;;
55483;SDS011;41345;51.704;5.146;2023-04-24T00:15:42;75.53;;;70.03;;
55483;SDS011;41345;51.704;5.146;2023-04-24T00:20:42;72.75;;;66.97;;
55483;SDS011;41345;51.704;5.146;2023-04-24T00:25:43;76.18;;;70.28;;
55483;SDS011;41345;51.704;5.146;2023-04-24T00:30:43;76.13;;;69.85;;
55483;SDS011;41345;51.704;5.146;2023-04-24T00:35:44;76.88;;;69.85;;
55483;SDS011;41345;51.704;5.146;2023-04-24T00:40:44;81.75;;;74.15;;
55483;SDS011;41345;51.704;5.146;2023-04-24T00:45:45;77.25;;;70.32;;
55483;SDS011;41345;51.704;5.146;2023-04-24T00:50:46;80.30;;;73.20;;
55483;SDS011;41345;51.704;5.146;2023-04-24T00:55:46;77.80;;;70.68;;
55483;SDS011;41345;51.704;5.146;2023-04-24T01:00:47;81.27;;;74.10;;
55483;SDS011;41345;51.704;5.146;2023-04-24T01:05:48;85.10;;;78.07;;
55483;SDS011;41345;51.704;5.146;2023-04-24T01:10:49;85.22;;;78.32;;
55483;SDS011;41345;51.704;5.146;2023-04-24T01:15:51;84.15;;;77.30;;
55483;SDS011;41345;51.704;5.146;2023-04-24T01:20:53;83.70;;;76.65;;
55483;SDS011;41345;51.704;5.146;2023-04-24T01:25:53;78.43;;;71.20;;
55483;SDS011;41345;51.704;5.146;2023-04-24T01:30:54;87.35;;;79.88;;
55483;SDS011;41345;51.704;5.146;2023-04-24T01:35:54;79.90;;;72.88;;
55483;SDS011;41345;51.704;5.146;2023-04-24T01:40:54;78.95;;;72.35;;
55483;SDS011;41345;51.704;5.146;2023-04-24T01:45:55;83.25;;;76.72;;
55483;SDS011;41345;51.704;5.146;2023-04-24T01:50:56;79.27;;;72.87;;
55483;SDS011;41345;51.704;5.146;2023-04-24T01:55:56;74.65;;;68.88;;
55483;SDS011;41345;51.704;5.146;2023-04-24T02:00:57;83.22;;;76.65;;
55483;SDS011;41345;51.704;5.146;2023-04-24T02:05:58;85.82;;;78.85;;
55483;SDS011;41345;51.704;5.146;2023-04-24T02:10:59;87.38;;;79.82;;
55483;SDS011;41345;51.704;5.146;2023-04-24T02:16:01;86.95;;;79.50;;
55483;SDS011;41345;51.704;5.146;2023-04-24T02:21:01;88.38;;;81.25;;
55483;SDS011;41345;51.704;5.146;2023-04-24T02:26:02;83.27;;;76.60;;
55483;SDS011;41345;51.704;5.146;2023-04-24T02:31:02;79.63;;;72.90;;
55483;SDS011;41345;51.704;5.146;2023-04-24T02:36:02;84.75;;;77.28;;
55483;SDS011;41345;51.704;5.146;2023-04-24T02:41:03;82.30;;;75.40;;
55483;SDS011;41345;51.704;5.146;2023-04-24T02:46:06;90.40;;;83.32;;
55483;SDS011;41345;51.704;5.146;2023-04-24T02:51:06;82.90;;;75.93;;
55483;SDS011;41345;51.704;5.146;2023-04-24T02:56:06;85.35;;;78.15;;
55483;SDS011;41345;51.704;5.146;2023-04-24T03:01:07;86.13;;;79.10;;
55483;SDS011;41345;51.704;5.146;2023-04-24T03:06:07;87.68;;;79.70;;
55483;SDS011;41345;51.704;5.146;2023-04-24T03:11:08;87.38;;;79.57;;
55483;SDS011;41345;51.704;5.146;2023-04-24T03:16:08;85.80;;;78.10;;
55483;SDS011;41345;51.704;5.146;2023-04-24T03:21:09;81.50;;;74.72;;
55483;SDS011;41345;51.704;5.146;2023-04-24T03:26:09;80.65;;;74.00;;
55483;SDS011;41345;51.704;5.146;2023-04-24T03:31:09;86.30;;;79.20;;
55483;SDS011;41345;51.704;5.146;2023-04-24T03:36:10;88.10;;;80.40;;
55483;SDS011;41345;51.704;5.146;2023-04-24T03:41:10;84.15;;;77.18;;
55483;SDS011;41345;51.704;5.146;2023-04-24T03:46:11;84.75;;;78.20;;
55483;SDS011;41345;51.704;5.146;2023-04-24T03:51:11;80.38;;;73.65;;
55483;SDS011;41345;51.704;5.146;2023-04-24T03:56:12;81.47;;;74.33;;
55483;SDS011;41345;51.704;5.146;2023-04-24T04:01:12;79.93;;;73.57;;
55483;SDS011;41345;51.704;5.146;2023-04-24T04:06:13;78.72;;;72.35;;
55483;SDS011;41345;51.704;5.146;2023-04-24T04:11:13;75.63;;;69.85;;
55483;SDS011;41345;51.704;5.146;2023-04-24T04:16:14;74.25;;;68.45;;
55483;SDS011;41345;51.704;5.146;2023-04-24T04:21:16;74.05;;;68.32;;
55483;SDS011;41345;51.704;5.146;2023-04-24T04:26:17;67.85;;;62.95;;
55483;SDS011;41345;51.704;5.146;2023-04-24T04:31:19;72.35;;;67.28;;
55483;SDS011;41345;51.704;5.146;2023-04-24T04:36:20;66.60;;;61.83;;
55483;SDS011;41345;51.704;5.146;2023-04-24T04:41:21;71.28;;;66.43;;
55483;SDS011;41345;51.704;5.146;2023-04-24T04:46:21;62.83;;;58.13;;
55483;SDS011;41345;51.704;5.146;2023-04-24T04:51:25;61.47;;;57.40;;
55483;SDS011;41345;51.704;5.146;2023-04-24T04:56:26;62.87;;;58.97;;
55483;SDS011;41345;51.704;5.146;2023-04-24T05:01:26;68.93;;;64.70;;
55483;SDS011;41345;51.704;5.146;2023-04-24T05:06:27;69.90;;;65.55;;
55483;SDS011;41345;51.704;5.146;2023-04-24T05:11:29;73.32;;;68.75;;
55483;SDS011;41345;51.704;5.146;2023-04-24T05:16:30;73.45;;;68.85;;
55483;SDS011;41345;51.704;5.146;2023-04-24T05:21:30;73.03;;;67.93;;
55483;SDS011;41345;51.704;5.146;2023-04-24T05:26:31;65.43;;;60.83;;
55483;SDS011;41345;51.704;5.146;2023-04-24T05:31:31;64.60;;;59.60;;
55483;SDS011;41345;51.704;5.146;2023-04-24T05:36:32;62.47;;;57.97;;
55483;SDS011;41345;51.704;5.146;2023-04-24T05:41:32;63.15;;;58.15;;
55483;SDS011;41345;51.704;5.146;2023-04-24T05:46:32;65.18;;;59.90;;
55483;SDS011;41345;51.704;5.146;2023-04-24T05:51:33;66.32;;;60.20;;
55483;SDS011;41345;51.704;5.146;2023-04-24T05:56:33;63.63;;;58.00;;
55483;SDS011;41345;51.704;5.146;2023-04-24T06:01:33;58.75;;;54.42;;
55483;SDS011;41345;51.704;5.146;2023-04-24T06:06:34;63.28;;;58.38;;
55483;SDS011;41345;51.704;5.146;2023-04-24T06:11:35;68.20;;;63.22;;
55483;SDS011;41345;51.704;5.146;2023-04-24T06:16:35;64.53;;;59.63;;
55483;SDS011;41345;51.704;5.146;2023-04-24T06:21:35;63.83;;;58.83;;
55483;SDS011;41345;51.704;5.146;2023-04-24T06:26:36;72.93;;;67.40;;
55483;SDS011;41345;51.704;5.146;2023-04-24T06:31:36;71.53;;;66.00;;
55483;SDS011;41345;51.704;5.146;2023-04-24T06:36:37;73.47;;;67.95;;
55483;SDS011;41345;51.704;5.146;2023-04-24T06:41:37;77.17;;;70.97;;
55483;SDS011;41345;51.704;5.146;2023-04-24T06:46:37;76.35;;;69.57;;
55483;SDS011;41345;51.704;5.146;2023-04-24T06:51:37;72.95;;;66.35;;
55483;SDS011;41345;51.704;5.146;2023-04-24T06:56:38;76.53;;;70.03;;
55483;SDS011;41345;51.704;5.146;2023-04-24T07:01:38;87.80;;;80.57;;
55483;SDS011;41345;51.704;5.146;2023-04-24T07:06:38;83.25;;;76.78;;
55483;SDS011;41345;51.704;5.146;2023-04-24T07:11:39;86.97;;;79.88;;
55483;SDS011;41345;51.704;5.146;2023-04-24T07:16:40;90.45;;;83.68;;
55483;SDS011;41345;51.704;5.146;2023-04-24T07:21:41;78.38;;;72.00;;
55483;SDS011;41345;51.704;5.146;2023-04-24T07:26:42;76.87;;;70.30;;
55483;SDS011;41345;51.704;5.146;2023-04-24T07:31:42;80.43;;;73.70;;
55483;SDS011;41345;51.704;5.146;2023-04-24T07:36:42;76.93;;;70.45;;
55483;SDS011;41345;51.704;5.146;2023-04-24T07:41:43;76.13;;;69.82;;
55483;SDS011;41345;51.704;5.146;2023-04-24T07:46:43;71.18;;;64.93;;
55483;SDS011;41345;51.704;5.146;2023-04-24T07:51:44;71.20;;;64.77;;
55483;SDS011;41345;51.704;5.146;2023-04-24T07:56:44;68.47;;;61.90;;
55483;SDS011;41345;51.704;5.146;2023-04-24T08:01:45;65.72;;;59.40;;
55483;SDS011;41345;51.704;5.146;2023-04-24T08:06:46;70.20;;;64.50;;
55483;SDS011;41345;51.704;5.146;2023-04-24T08:11:47;72.20;;;65.88;;
55483;SDS011;41345;51.704;5.146;2023-04-24T08:16:47;67.70;;;61.50;;
55483;SDS011;41345;51.704;5.146;2023-04-24T08:21:47;59.10;;;53.75;;
55483;SDS011;41345;51.704;5.146;2023-04-24T08:26:48;59.55;;;54.28;;
55483;SDS011;41345;51.704;5.146;2023-04-24T08:31:51;52.70;;;47.20;;
55483;SDS011;41345;51.704;5.146;2023-04-24T08:36:54;49.65;;;44.90;;
55483;SDS011;41345;51.704;5.146;2023-04-24T08:41:55;48.17;;;43.72;;
55483;SDS011;41345;51.704;5.146;2023-04-24T08:46:55;50.92;;;46.35;;
55483;SDS011;41345;51.704;5.146;2023-04-24T08:51:55;40.45;;;36.88;;
55483;SDS011;41345;51.704;5.146;2023-04-24T08:56:59;48.92;;;44.38;;
55483;SDS011;41345;51.704;5.146;2023-04-24T09:02:01;42.95;;;39.30;;
55483;SDS011;41345;51.704;5.146;2023-04-24T09:07:02;36.30;;;33.50;;
55483;SDS011;41345;51.704;5.146;2023-04-24T09:12:03;42.83;;;39.25;;
55483;SDS011;41345;51.704;5.146;2023-04-24T09:17:03;40.03;;;37.08;;
55483;SDS011;41345;51.704;5.146;2023-04-24T09:22:04;37.33;;;34.30;;
55483;SDS011;41345;51.704;5.146;2023-04-24T09:27:05;39.17;;;36.20;;
55483;SDS011;41345;51.704;5.146;2023-04-24T09:32:19;37.30;;;33.95;;
55483;SDS011;41345;51.704;5.146;2023-04-24T09:37:28;38.55;;;35.83;;
55483;SDS011;41345;51.704;5.146;2023-04-24T09:42:29;38.00;;;34.72;;
55483;SDS011;41345;51.704;5.146;2023-04-24T09:47:36;33.00;;;30.67;;
55483;SDS011;41345;51.704;5.146;2023-04-24T09:52:39;23.00;;;20.88;;
55483;SDS011;41345;51.704;5.146;2023-04-24T09:57:49;26.80;;;24.63;;
55483;SDS011;41345;51.704;5.146;2023-04-24T10:02:50;18.75;;;17.25;;
55483;SDS011;41345;51.704;5.146;2023-04-24T10:07:52;27.55;;;25.45;;
55483;SDS011;41345;51.704;5.146;2023-04-24T10:12:55;33.20;;;30.48;;
55483;SDS011;41345;51.704;5.146;2023-04-24T10:17:57;29.53;;;27.37;;
55483;SDS011;41345;51.704;5.146;2023-04-24T10:22:58;31.80;;;29.85;;
55483;SDS011;41345;51.704;5.146;2023-04-24T10:27:59;15.70;;;14.55;;
55483;SDS011;41345;51.704;5.146;2023-04-24T10:33:00;19.42;;;18.15;;
55483;SDS011;41345;51.704;5.146;2023-04-24T10:43:05;10.20;;;7.38;;
55483;SDS011;41345;51.704;5.146;2023-04-24T10:48:10;12.32;;;10.88;;
55483;SDS011;41345;51.704;5.146;2023-04-24T10:53:15;17.13;;;15.77;;
55483;SDS011;41345;51.704;5.146;2023-04-24T10:58:16;10.27;;;9.27;;
55483;SDS011;41345;51.704;5.146;2023-04-24T11:03:26;10.70;;;9.90;;
55483;SDS011;41345;51.704;5.146;2023-04-24T11:08:28;7.07;;;6.00;;
55483;SDS011;41345;51.704;5.146;2023-04-24T11:18:52;8.38;;;7.47;;
55483;SDS011;41345;51.704;5.146;2023-04-24T11:23:54;9.35;;;5.75;;
55483;SDS011;41345;51.704;5.146;2023-04-24T11:28:55;14.32;;;8.32;;
55483;SDS011;41345;51.704;5.146;2023-04-24T11:34:16;13.40;;;12.10;;
55483;SDS011;41345;51.704;5.146;2023-04-24T11:39:16;13.23;;;11.98;;
55483;SDS011;41345;51.704;5.146;2023-04-24T11:44:16;17.55;;;15.95;;
55483;SDS011;41345;51.704;5.146;2023-04-24T11:49:20;14.95;;;13.55;;
55483;SDS011;41345;51.704;5.146;2023-04-24T11:54:20;13.60;;;12.30;;
55483;SDS011;41345;51.704;5.146;2023-04-24T11:59:20;10.18;;;8.23;;
55483;SDS011;41345;51.704;5.146;2023-04-24T12:04:21;10.40;;;7.80;;
55483;SDS011;41345;51.704;5.146;2023-04-24T12:09:21;10.60;;;9.68;;
55483;SDS011;41345;51.704;5.146;2023-04-24T12:14:22;12.87;;;11.57;;
55483;SDS011;41345;51.704;5.146;2023-04-24T12:19:22;9.38;;;8.27;;
55483;SDS011;41345;51.704;5.146;2023-04-24T12:24:23;19.23;;;17.45;;
55483;SDS011;41345;51.704;5.146;2023-04-24T12:29:23;31.20;;;29.40;;
55483;SDS011;41345;51.704;5.146;2023-04-24T12:34:24;42.15;;;39.72;;
55483;SDS011;41345;51.704;5.146;2023-04-24T12:39:25;30.48;;;28.52;;
55483;SDS011;41345;51.704;5.146;2023-04-24T12:44:30;20.73;;;19.33;;
55483;SDS011;41345;51.704;5.146;2023-04-24T12:49:31;20.27;;;18.70;;
55483;SDS011;41345;51.704;5.146;2023-04-24T12:54:32;17.10;;;15.87;;
55483;SDS011;41345;51.704;5.146;2023-04-24T12:59:32;12.48;;;9.02;;
55483;SDS011;41345;51.704;5.146;2023-04-24T13:04:32;19.80;;;17.97;;
55483;SDS011;41345;51.704;5.146;2023-04-24T13:09:33;8.93;;;3.13;;
55483;SDS011;41345;51.704;5.146;2023-04-24T13:14:34;5.15;;;3.25;;
55483;SDS011;41345;51.704;5.146;2023-04-24T13:19:38;8.70;;;3.88;;
55483;SDS011;41345;51.704;5.146;2023-04-24T13:24:39;7.88;;;7.00;;
55483;SDS011;41345;51.704;5.146;2023-04-24T13:29:41;8.52;;;7.78;;
55483;SDS011;41345;51.704;5.146;2023-04-24T13:34:41;8.55;;;5.53;;
55483;SDS011;41345;51.704;5.146;2023-04-24T13:39:41;9.18;;;5.70;;
55483;SDS011;41345;51.704;5.146;2023-04-24T13:44:42;10.30;;;9.30;;
55483;SDS011;41345;51.704;5.146;2023-04-24T13:49:42;13.32;;;9.73;;
55483;SDS011;41345;51.704;5.146;2023-04-24T13:54:42;10.07;;;5.88;;
55483;SDS011;41345;51.704;5.146;2023-04-24T13:59:43;12.23;;;10.93;;
55483;SDS011;41345;51.704;5.146;2023-04-24T14:04:43;13.20;;;6.20;;
55483;SDS011;41345;51.704;5.146;2023-04-24T14:09:43;8.60;;;6.28;;
55483;SDS011;41345;51.704;5.146;2023-04-24T14:14:44;12.35;;;4.35;;
55483;SDS011;41345;51.704;5.146;2023-04-24T14:19:44;14.93;;;10.27;;
55483;SDS011;41345;51.704;5.146;2023-04-24T14:24:45;9.95;;;5.90;;
55483;SDS011;41345;51.704;5.146;2023-04-24T14:29:45;12.23;;;7.28;;
55483;SDS011;41345;51.704;5.146;2023-04-24T14:34:45;19.10;;;17.60;;
55483;SDS011;41345;51.704;5.146;2023-04-24T14:39:46;30.43;;;28.33;;
55483;SDS011;41345;51.704;5.146;2023-04-24T14:44:46;37.53;;;35.28;;
55483;SDS011;41345;51.704;5.146;2023-04-24T14:49:47;46.47;;;43.80;;
55483;SDS011;41345;51.704;5.146;2023-04-24T14:54:47;37.30;;;34.70;;
55483;SDS011;41345;51.704;5.146;2023-04-24T14:59:48;36.42;;;33.83;;
55483;SDS011;41345;51.704;5.146;2023-04-24T15:04:48;29.93;;;28.00;;
55483;SDS011;41345;51.704;5.146;2023-04-24T15:09:48;38.42;;;35.97;;
55483;SDS011;41345;51.704;5.146;2023-04-24T15:14:49;20.00;;;16.48;;
55483;SDS011;41345;51.704;5.146;2023-04-24T15:19:49;24.17;;;21.73;;
55483;SDS011;41345;51.704;5.146;2023-04-24T15:24:49;16.42;;;12.85;;
55483;SDS011;41345;51.704;5.146;2023-04-24T15:29:50;12.50;;;5.63;;
55483;SDS011;41345;51.704;5.146;2023-04-24T15:34:50;9.65;;;5.20;;
55483;SDS011;41345;51.704;5.146;2023-04-24T15:39:50;12.47;;;9.57;;
55483;SDS011;41345;51.704;5.146;2023-04-24T15:44:51;11.13;;;5.85;;
55483;SDS011;41345;51.704;5.146;2023-04-24T15:49:51;8.40;;;3.80;;
55483;SDS011;41345;51.704;5.146;2023-04-24T15:54:52;15.55;;;8.13;;
55483;SDS011;41345;51.704;5.146;2023-04-24T15:59:53;14.02;;;8.68;;
55483;SDS011;41345;51.704;5.146;2023-04-24T16:04:53;13.38;;;5.13;;
55483;SDS011;41345;51.704;5.146;2023-04-24T16:09:53;12.60;;;7.60;;
55483;SDS011;41345;51.704;5.146;2023-04-24T16:14:54;13.02;;;3.05;;
55483;SDS011;41345;51.704;5.146;2023-04-24T16:19:55;12.20;;;3.97;;
55483;SDS011;41345;51.704;5.146;2023-04-24T16:24:55;10.50;;;3.20;;
55483;SDS011;41345;51.704;5.146;2023-04-24T16:29:57;13.63;;;3.50;;
55483;SDS011;41345;51.704;5.146;2023-04-24T16:34:58;12.05;;;3.67;;
55483;SDS011;41345;51.704;5.146;2023-04-24T16:39:58;8.87;;;3.00;;
55483;SDS011;41345;51.704;5.146;2023-04-24T16:44:59;10.35;;;3.22;;
55483;SDS011;41345;51.704;5.146;2023-04-24T16:49:59;20.15;;;4.57;;
55483;SDS011;41345;51.704;5.146;2023-04-24T16:54:59;12.20;;;4.32;;
55483;SDS011;41345;51.704;5.146;2023-04-24T17:00:00;14.60;;;4.90;;
55483;SDS011;41345;51.704;5.146;2023-04-24T17:05:00;13.95;;;4.63;;
55483;SDS011;41345;51.704;5.146;2023-04-24T17:10:00;19.23;;;5.50;;
55483;SDS011;41345;51.704;5.146;2023-04-24T17:15:01;16.70;;;4.68;;
55483;SDS011;41345;51.704;5.146;2023-04-24T17:20:01;17.93;;;5.33;;
55483;SDS011;41345;51.704;5.146;2023-04-24T17:25:01;19.33;;;7.10;;
55483;SDS011;41345;51.704;5.146;2023-04-24T17:30:02;19.10;;;5.63;;
55483;SDS011;41345;51.704;5.146;2023-04-24T17:35:05;19.58;;;5.97;;
55483;SDS011;41345;51.704;5.146;2023-04-24T17:40:06;18.70;;;5.28;;
55483;SDS011;41345;51.704;5.146;2023-04-24T17:45:07;17.27;;;4.47;;
55483;SDS011;41345;51.704;5.146;2023-04-24T17:50:07;16.27;;;4.38;;
55483;SDS011;41345;51.704;5.146;2023-04-24T17:55:08;20.67;;;4.75;;
55483;SDS011;41345;51.704;5.146;2023-04-24T18:00:08;13.60;;;4.57;;
55483;SDS011;41345;51.704;5.146;2023-04-24T18:05:09;18.08;;;4.28;;
55483;SDS011;41345;51.704;5.146;2023-04-24T18:10:09;14.63;;;4.53;;
55483;SDS011;41345;51.704;5.146;2023-04-24T18:15:10;18.40;;;4.20;;
55483;SDS011;41345;51.704;5.146;2023-04-24T18:20:11;14.52;;;4.18;;
55483;SDS011;41345;51.704;5.146;2023-04-24T18:25:11;16.90;;;4.68;;
55483;SDS011;41345;51.704;5.146;2023-04-24T18:30:12;15.35;;;4.72;;
55483;SDS011;41345;51.704;5.146;2023-04-24T18:35:12;13.23;;;5.00;;
55483;SDS011;41345;51.704;5.146;2023-04-24T18:40:13;14.20;;;5.32;;
55483;SDS011;41345;51.704;5.146;2023-04-24T18:45:14;14.63;;;5.78;;
55483;SDS011;41345;51.704;5.146;2023-04-24T18:50:14;17.77;;;7.83;;
55483;SDS011;41345;51.704;5.146;2023-04-24T18:55:15;17.17;;;7.13;;
55483;SDS011;41345;51.704;5.146;2023-04-24T19:00:15;18.20;;;8.35;;
55483;SDS011;41345;51.704;5.146;2023-04-24T19:05:16;17.90;;;11.10;;
55483;SDS011;41345;51.704;5.146;2023-04-24T19:10:17;18.27;;;9.77;;
55483;SDS011;41345;51.704;5.146;2023-04-24T19:15:17;21.50;;;12.15;;
55483;SDS011;41345;51.704;5.146;2023-04-24T19:20:18;25.40;;;15.67;;
55483;SDS011;41345;51.704;5.146;2023-04-24T19:25:18;18.92;;;14.60;;
55483;SDS011;41345;51.704;5.146;2023-04-24T19:30:18;19.60;;;15.00;;
55483;SDS011;41345;51.704;5.146;2023-04-24T19:35:19;23.27;;;16.95;;
55483;SDS011;41345;51.704;5.146;2023-04-24T19:40:19;18.67;;;15.30;;
55483;SDS011;41345;51.704;5.146;2023-04-24T19:45:19;22.80;;;18.27;;
55483;SDS011;41345;51.704;5.146;2023-04-24T19:50:20;18.95;;;16.85;;
55483;SDS011;41345;51.704;5.146;2023-04-24T19:55:20;23.55;;;21.17;;
55483;SDS011;41345;51.704;5.146;2023-04-24T20:00:20;22.90;;;17.87;;
55483;SDS011;41345;51.704;5.146;2023-04-24T20:05:21;22.80;;;18.98;;
55483;SDS011;41345;51.704;5.146;2023-04-24T20:10:21;23.70;;;21.20;;
55483;SDS011;41345;51.704;5.146;2023-04-24T20:15:21;26.92;;;24.17;;
55483;SDS011;41345;51.704;5.146;2023-04-24T20:20:22;31.40;;;28.83;;
55483;SDS011;41345;51.704;5.146;2023-04-24T20:25:22;31.05;;;28.55;;
55483;SDS011;41345;51.704;5.146;2023-04-24T20:30:22;35.43;;;32.53;;
55483;SDS011;41345;51.704;5.146;2023-04-24T20:35:23;34.80;;;31.65;;
55483;SDS011;41345;51.704;5.146;2023-04-24T20:40:23;38.25;;;35.33;;
55483;SDS011;41345;51.704;5.146;2023-04-24T20:45:24;39.72;;;36.83;;
55483;SDS011;41345;51.704;5.146;2023-04-24T20:50:24;35.20;;;32.35;;
55483;SDS011;41345;51.704;5.146;2023-04-24T20:55:25;40.28;;;37.38;;
55483;SDS011;41345;51.704;5.146;2023-04-24T21:00:26;43.30;;;39.97;;
55483;SDS011;41345;51.704;5.146;2023-04-24T21:05:26;44.72;;;41.83;;
55483;SDS011;41345;51.704;5.146;2023-04-24T21:10:26;46.42;;;43.25;;
55483;SDS011;41345;51.704;5.146;2023-04-24T21:15:27;44.45;;;41.95;;
55483;SDS011;41345;51.704;5.146;2023-04-24T21:20:28;44.22;;;41.33;;
55483;SDS011;41345;51.704;5.146;2023-04-24T21:25:28;45.28;;;42.40;;
55483;SDS011;41345;51.704;5.146;2023-04-24T21:30:29;46.15;;;43.30;;
55483;SDS011;41345;51.704;5.146;2023-04-24T21:35:29;44.10;;;41.17;;
55483;SDS011;41345;51.704;5.146;2023-04-24T21:40:29;41.83;;;38.83;;
55483;SDS011;41345;51.704;5.146;2023-04-24T21:45:30;44.92;;;41.88;;
55483;SDS011;41345;51.704;5.146;2023-04-24T21:50:30;47.05;;;43.85;;
55483;SDS011;41345;51.704;5.146;2023-04-24T21:55:30;47.63;;;44.70;;
55483;SDS011;41345;51.704;5.146;2023-04-24T22:00:31;52.05;;;48.95;;
55483;SDS011;41345;51.704;5.146;2023-04-24T22:05:31;57.30;;;54.10;;
55483;SDS011;41345;51.704;5.146;2023-04-24T22:10:32;58.45;;;54.58;;
55483;SDS011;41345;51.704;5.146;2023-04-24T22:15:32;55.60;;;52.10;;
55483;SDS011;41345;51.704;5.146;2023-04-24T22:20:33;55.10;;;51.85;;
55483;SDS011;41345;51.704;5.146;2023-04-24T22:25:33;57.37;;;53.87;;
55483;SDS011;41345;51.704;5.146;2023-04-24T22:30:33;58.22;;;54.45;;
55483;SDS011;41345;51.704;5.146;2023-04-24T22:35:34;58.92;;;54.65;;
55483;SDS011;41345;51.704;5.146;2023-04-24T22:40:36;60.42;;;56.70;;
55483;SDS011;41345;51.704;5.146;2023-04-24T22:45:36;53.03;;;49.83;;
55483;SDS011;41345;51.704;5.146;2023-04-24T22:50:37;56.95;;;53.42;;
55483;SDS011;41345;51.704;5.146;2023-04-24T22:55:37;52.88;;;49.58;;
55483;SDS011;41345;51.704;5.146;2023-04-24T23:00:37;57.42;;;53.60;;
55483;SDS011;41345;51.704;5.146;2023-04-24T23:05:38;62.72;;;58.47;;
55483;SDS011;41345;51.704;5.146;2023-04-24T23:10:38;64.90;;;60.63;;
55483;SDS011;41345;51.704;5.146;2023-04-24T23:15:39;60.85;;;56.78;;
55483;SDS011;41345;51.704;5.146;2023-04-24T23:20:39;60.40;;;56.05;;
55483;SDS011;41345;51.704;5.146;2023-04-24T23:25:40;67.93;;;63.55;;
55483;SDS011;41345;51.704;5.146;2023-04-24T23:30:40;60.45;;;56.63;;
55483;SDS011;41345;51.704;5.146;2023-04-24T23:35:40;66.15;;;61.65;;
55483;SDS011;41345;51.704;5.146;2023-04-24T23:40:41;65.43;;;60.77;;
55483;SDS011;41345;51.704;5.146;2023-04-24T23:45:41;63.00;;;58.88;;
55483;SDS011;41345;51.704;5.146;2023-04-24T23:50:41;66.80;;;62.13;;
55483;SDS011;41345;51.704;5.146;2023-04-24T23:55:42;66.97;;;62.53;;
